Time;durP1;ratioP1;P1;durP2;ratioP2;P2;SDS_P1;SDS_P2;PMS_P1;PMS_P2;Temp;Humidity;BMP_temperature;BMP_pressure;BME280_temperature;BME280_humidity;BME280_pressure;Samples;Min_cycle;Max_cycle;Signal;HPM_P1;HPM_P2
2021/08/30 00:01:21;;;;;;;8.63;5.32;;;11.30;99.90;;;;;;5072083;28;20032;-71
2021/08/30 00:03:46;;;;;;;7.68;5.32;;;11.30;99.90;;;;;;5072061;28;20139;-71
2021/08/30 00:06:12;;;;;;;7.70;5.18;;;11.20;99.90;;;;;;5071656;28;20023;-71
2021/08/30 00:08:38;;;;;;;7.70;5.47;;;11.20;99.90;;;;;;5071863;28;20384;-71
2021/08/30 00:11:04;;;;;;;7.50;5.30;;;11.20;99.90;;;;;;5072120;28;20029;-71
2021/08/30 00:13:30;;;;;;;9.55;5.10;;;11.10;99.90;;;;;;5072110;28;20027;-72
2021/08/30 00:15:57;;;;;;;8.90;5.43;;;11.10;99.90;;;;;;5072354;28;20040;-72
2021/08/30 00:18:23;;;;;;;8.45;4.93;;;11.00;99.90;;;;;;5071881;28;20028;-72
2021/08/30 00:20:50;;;;;;;8.00;5.25;;;11.00;99.90;;;;;;5072071;28;20098;-72
2021/08/30 00:23:16;;;;;;;7.45;5.18;;;11.00;99.90;;;;;;5071804;28;20028;-72
2021/08/30 00:25:42;;;;;;;13.18;5.55;;;11.00;99.90;;;;;;5071648;28;20020;-72
2021/08/30 00:28:08;;;;;;;7.65;5.10;;;11.00;99.90;;;;;;5071683;28;20032;-72
2021/08/30 00:30:33;;;;;;;6.25;4.65;;;10.90;99.90;;;;;;5071907;28;20038;-72
2021/08/30 00:32:59;;;;;;;8.32;5.28;;;10.90;99.90;;;;;;5070846;28;20017;-72
2021/08/30 00:35:25;;;;;;;7.85;5.57;;;10.90;99.90;;;;;;5072176;28;20429;-72
2021/08/30 00:37:51;;;;;;;6.60;4.68;;;10.80;99.90;;;;;;5071566;28;20074;-72
2021/08/30 00:40:17;;;;;;;8.55;5.38;;;10.80;99.90;;;;;;5071711;28;20027;-72
2021/08/30 00:42:44;;;;;;;6.95;5.28;;;10.70;99.90;;;;;;5071806;28;20158;-72
2021/08/30 00:45:12;;;;;;;8.77;5.35;;;10.70;99.90;;;;;;5071977;28;20025;-72
2021/08/30 00:47:39;;;;;;;9.68;5.75;;;10.60;99.90;;;;;;5071688;28;20108;-72
2021/08/30 00:50:07;;;;;;;8.02;4.88;;;10.60;99.90;;;;;;5071752;28;20063;-72
2021/08/30 00:52:33;;;;;;;8.20;5.60;;;10.60;99.90;;;;;;5071374;28;20023;-72
2021/08/30 00:54:59;;;;;;;7.75;5.07;;;10.60;99.90;;;;;;5071439;28;20060;-72
2021/08/30 00:57:25;;;;;;;7.53;5.30;;;10.60;99.90;;;;;;5071760;28;20035;-72
2021/08/30 00:59:51;;;;;;;8.82;5.47;;;10.60;99.90;;;;;;5071260;28;20111;-72
2021/08/30 01:02:16;;;;;;;8.40;5.35;;;10.60;99.90;;;;;;5071437;28;20100;-72
2021/08/30 01:04:45;;;;;;;9.98;5.15;;;10.60;99.90;;;;;;5071551;28;20044;-72
2021/08/30 01:07:43;;;;;;;10.15;5.78;;;10.60;99.90;;;;;;5071649;28;20021;-70
2021/08/30 01:10:17;;;;;;;9.70;5.38;;;10.60;99.90;;;;;;5071336;28;20040;-70
2021/08/30 01:13:08;;;;;;;7.32;5.00;;;10.60;99.90;;;;;;5071485;28;20047;-70
2021/08/30 01:15:40;;;;;;;9.90;5.80;;;10.60;99.90;;;;;;5071564;28;20037;-70
2021/08/30 01:47:12;;;;;;;8.38;5.10;;;10.40;99.90;;;;;;5074424;28;20571;-68
2021/08/30 01:49:38;;;;;;;7.32;5.13;;;10.40;99.90;;;;;;5074622;28;20043;-69
2021/08/30 01:52:04;;;;;;;9.90;5.15;;;10.30;99.90;;;;;;5074534;28;20107;-69
2021/08/30 01:54:31;;;;;;;9.05;5.43;;;10.30;99.90;;;;;;5074141;28;20559;-69
2021/08/30 01:56:58;;;;;;;9.73;5.55;;;10.30;99.90;;;;;;5074162;28;20072;-69
2021/08/30 02:02:10;;;;;;;9.27;5.25;;;10.30;99.90;;;;;;5074301;28;20057;-69
2021/08/30 02:04:37;;;;;;;10.60;5.72;;;10.20;99.90;;;;;;5074439;28;20380;-68
2021/08/30 02:07:04;;;;;;;11.52;4.97;;;10.20;99.90;;;;;;5074292;28;20387;-68
2021/08/30 02:09:31;;;;;;;6.65;4.75;;;10.10;99.90;;;;;;5074279;28;20020;-69
2021/08/30 02:11:57;;;;;;;7.22;4.63;;;10.00;99.90;;;;;;5073899;28;20483;-70
2021/08/30 02:14:23;;;;;;;8.65;4.55;;;10.00;99.90;;;;;;5074257;28;20031;-69
2021/08/30 02:16:50;;;;;;;8.25;4.93;;;9.90;99.90;;;;;;5073859;28;20021;-69
2021/08/30 02:19:41;;;;;;;8.65;5.40;;;9.90;99.90;;;;;;5073800;28;20033;-69
2021/08/30 02:22:13;;;;;;;7.72;5.00;;;9.90;99.90;;;;;;5073928;28;20044;-69
2021/08/30 02:25:02;;;;;;;6.60;4.93;;;9.80;99.90;;;;;;5073851;28;20032;-69
2021/08/30 02:27:54;;;;;;;6.88;4.75;;;9.80;99.90;;;;;;5073685;28;20021;-69
2021/08/30 02:30:29;;;;;;;8.43;4.95;;;9.80;99.90;;;;;;5073127;28;20064;-69
2021/08/30 02:33:00;;;;;;;7.53;4.70;;;9.80;99.90;;;;;;5073756;28;20024;-69
2021/08/30 02:35:30;;;;;;;9.25;4.88;;;9.70;99.90;;;;;;5073843;28;20078;-69
2021/08/30 02:37:57;;;;;;;7.45;5.05;;;9.70;99.90;;;;;;5073667;28;20099;-68
2021/08/30 02:40:27;;;;;;;7.72;5.03;;;9.70;99.90;;;;;;5073815;28;20028;-68
2021/08/30 02:42:54;;;;;;;10.95;4.47;;;9.70;99.90;;;;;;5073313;28;20032;-68
2021/08/30 02:45:22;;;;;;;6.97;5.07;;;9.70;99.90;;;;;;5073779;28;20021;-69
2021/08/30 02:47:50;;;;;;;9.70;5.60;;;9.60;99.90;;;;;;5073149;28;20078;-69
2021/08/30 02:50:16;;;;;;;9.82;4.82;;;9.60;99.90;;;;;;5073522;28;20046;-69
2021/08/30 02:52:44;;;;;;;9.45;5.20;;;9.60;99.90;;;;;;5073179;28;20383;-69
2021/08/30 02:55:10;;;;;;;9.20;4.40;;;9.60;99.90;;;;;;5073162;28;20055;-69
2021/08/30 02:57:38;;;;;;;7.75;4.50;;;9.60;99.90;;;;;;5073453;28;20029;-69
2021/08/30 03:00:05;;;;;;;8.38;4.88;;;9.60;99.90;;;;;;5073382;28;20107;-70
2021/08/30 03:02:32;;;;;;;15.25;5.05;;;9.60;99.90;;;;;;5073123;28;20043;-70
2021/08/30 03:04:59;;;;;;;9.40;4.82;;;9.60;99.90;;;;;;5073036;28;20025;-70
2021/08/30 03:07:29;;;;;;;7.38;4.78;;;9.60;99.90;;;;;;5072994;28;20071;-69
2021/08/30 03:09:59;;;;;;;8.95;4.55;;;9.60;99.90;;;;;;5066207;28;20637;-70
2021/08/30 03:12:26;;;;;;;7.90;4.60;;;9.50;99.90;;;;;;5052986;28;20033;-68
2021/08/30 03:14:55;;;;;;;7.80;4.65;;;9.50;99.90;;;;;;5052706;28;20059;-73
2021/08/30 03:17:23;;;;;;;5.72;3.88;;;9.50;99.90;;;;;;5053078;28;20025;-73
2021/08/30 03:19:52;;;;;;;10.68;4.30;;;9.60;99.90;;;;;;5052617;28;20107;-76
2021/08/30 03:22:19;;;;;;;7.30;4.55;;;10.40;99.90;;;;;;5052768;28;20366;-72
2021/08/30 03:24:46;;;;;;;8.98;4.43;;;11.10;99.90;;;;;;5052421;28;20033;-73
2021/08/30 03:27:14;;;;;;;8.10;5.10;;;11.10;99.90;;;;;;5052964;28;20021;-74
2021/08/30 03:29:42;;;;;;;8.63;4.68;;;10.80;99.90;;;;;;5052478;28;20041;-73
2021/08/30 03:32:10;;;;;;;7.95;4.45;;;10.60;99.90;;;;;;5052761;28;20029;-72
2021/08/30 03:34:38;;;;;;;8.85;5.90;;;10.40;99.90;;;;;;5052502;28;20508;-73
2021/08/30 03:37:06;;;;;;;7.85;5.35;;;10.30;99.90;;;;;;5052376;28;20110;-70
2021/08/30 03:39:31;;;;;;;8.60;5.18;;;10.40;99.90;;;;;;5062965;28;20091;-67
2021/08/30 03:41:58;;;;;;;6.68;3.90;;;10.80;99.90;;;;;;5072556;28;20472;-67
2021/08/30 03:44:25;;;;;;;11.90;4.72;;;11.40;99.90;;;;;;5072622;28;20107;-68
2021/08/30 03:46:53;;;;;;;10.82;5.00;;;11.70;99.90;;;;;;5072397;28;20024;-68
2021/08/30 03:49:21;;;;;;;8.18;5.28;;;11.90;99.90;;;;;;5072374;28;20032;-68
2021/08/30 03:51:47;;;;;;;10.18;5.22;;;12.00;99.90;;;;;;5072142;28;20035;-72
2021/08/30 03:54:13;;;;;;;15.77;4.85;;;12.10;99.90;;;;;;5071836;28;20048;-71
2021/08/30 03:56:41;;;;;;;8.15;4.20;;;12.20;99.90;;;;;;5072403;28;20111;-72
2021/08/30 03:59:09;;;;;;;6.65;4.47;;;12.40;99.90;;;;;;5071963;28;20056;-69
2021/08/30 04:01:39;;;;;;;8.60;4.82;;;12.40;99.90;;;;;;5072067;28;20542;-71
2021/08/30 04:04:07;;;;;;;8.10;4.88;;;12.30;99.90;;;;;;5072008;28;20028;-71
2021/08/30 04:06:34;;;;;;;6.88;4.57;;;12.40;99.90;;;;;;5072319;28;20048;-70
2021/08/30 04:09:00;;;;;;;7.68;4.53;;;12.40;99.90;;;;;;5071960;28;20064;-68
2021/08/30 04:11:26;;;;;;;8.98;4.85;;;12.40;99.90;;;;;;5072190;28;20036;-68
2021/08/30 04:13:53;;;;;;;8.80;4.70;;;12.40;99.90;;;;;;5070644;28;20028;-71
2021/08/30 04:16:19;;;;;;;8.60;4.90;;;12.40;99.90;;;;;;5070854;28;20487;-70
2021/08/30 04:18:45;;;;;;;7.57;4.43;;;12.50;99.90;;;;;;5055098;28;20090;-71
2021/08/30 04:21:11;;;;;;;6.90;4.40;;;12.60;99.90;;;;;;5051873;28;20116;-70
2021/08/30 04:23:37;;;;;;;8.30;4.47;;;12.80;99.90;;;;;;5051470;28;20029;-70
2021/08/30 04:26:03;;;;;;;12.13;5.03;;;12.90;99.90;;;;;;5051845;28;20594;-71
2021/08/30 04:28:29;;;;;;;12.85;4.90;;;12.90;99.90;;;;;;5051627;28;20108;-71
2021/08/30 04:30:54;;;;;;;9.02;5.22;;;12.90;99.90;;;;;;5051411;28;20029;-75
2021/08/30 04:33:22;;;;;;;6.95;4.53;;;13.10;99.90;;;;;;5057055;28;20027;-75
2021/08/30 04:35:48;;;;;;;9.65;4.78;;;13.30;99.90;;;;;;5051441;28;20493;-74
2021/08/30 04:38:14;;;;;;;6.95;4.30;;;13.50;99.90;;;;;;5062346;28;20013;-74
2021/08/30 04:40:40;;;;;;;7.80;4.78;;;13.70;99.90;;;;;;5060180;28;20051;-74
2021/08/30 04:43:09;;;;;;;9.30;4.72;;;13.90;99.90;;;;;;5060269;28;20024;-75
2021/08/30 04:45:36;;;;;;;6.47;4.38;;;14.10;99.90;;;;;;5071444;28;20021;-74
2021/08/30 04:48:01;;;;;;;7.72;4.28;;;14.30;99.90;;;;;;5069857;28;20058;-74
2021/08/30 04:50:27;;;;;;;6.82;4.35;;;14.40;99.90;;;;;;5058957;28;20037;-74
2021/08/30 04:52:53;;;;;;;9.40;4.72;;;14.60;99.90;;;;;;5063573;28;20071;-74
2021/08/30 04:55:18;;;;;;;10.75;4.88;;;14.80;99.90;;;;;;5075232;28;20079;-74
2021/08/30 04:57:44;;;;;;;8.60;4.25;;;15.00;99.90;;;;;;5075597;28;20536;-74
2021/08/30 05:00:12;;;;;;;7.65;4.80;;;15.20;99.90;;;;;;5074902;28;20488;-74
2021/08/30 05:02:38;;;;;;;8.93;4.20;;;15.40;99.90;;;;;;5071850;28;20017;-73
2021/08/30 05:05:04;;;;;;;8.13;4.18;;;15.50;99.90;;;;;;5063246;28;20042;-75
2021/08/30 05:07:30;;;;;;;6.55;4.38;;;15.60;99.90;;;;;;5072415;28;20107;-76
2021/08/30 05:09:55;;;;;;;6.70;4.43;;;15.80;99.90;;;;;;5074925;28;20115;-74
2021/08/30 05:12:25;;;;;;;6.70;4.20;;;16.00;99.90;;;;;;5073295;28;20016;-73
2021/08/30 05:14:51;;;;;;;8.05;4.45;;;16.20;99.90;;;;;;5070483;28;20031;-73
2021/08/30 05:17:16;;;;;;;9.23;4.10;;;16.40;99.90;;;;;;5070489;28;20033;-74
2021/08/30 05:19:42;;;;;;;8.50;3.85;;;16.60;99.90;;;;;;5071606;28;20017;-71
2021/08/30 05:22:08;;;;;;;6.43;3.83;;;16.70;99.90;;;;;;5063187;28;20036;-70
2021/08/30 05:24:34;;;;;;;6.70;4.15;;;16.90;99.90;;;;;;5070391;28;20028;-71
2021/08/30 05:26:59;;;;;;;6.57;4.35;;;17.00;99.90;;;;;;5065222;28;20024;-70
2021/08/30 05:29:25;;;;;;;6.60;4.00;;;17.00;99.80;;;;;;5073922;28;20025;-71
2021/08/30 05:31:51;;;;;;;8.85;4.35;;;17.10;99.80;;;;;;5074899;28;20119;-71
2021/08/30 05:34:16;;;;;;;8.18;4.65;;;17.30;99.60;;;;;;5074895;28;20031;-71
2021/08/30 05:36:42;;;;;;;6.82;4.18;;;17.40;99.20;;;;;;5074431;28;20032;-72
2021/08/30 05:39:08;;;;;;;7.82;3.65;;;17.50;98.70;;;;;;5074730;28;20521;-75
2021/08/30 05:41:34;;;;;;;5.57;4.03;;;17.60;98.60;;;;;;5074555;28;20480;-73
2021/08/30 05:43:59;;;;;;;7.35;4.50;;;17.80;98.10;;;;;;5074581;28;20029;-72
2021/08/30 05:46:25;;;;;;;6.90;4.03;;;17.90;97.50;;;;;;5074241;28;20395;-72
2021/08/30 05:48:51;;;;;;;6.88;4.22;;;18.10;97.40;;;;;;5073809;28;20024;-72
2021/08/30 05:51:17;;;;;;;9.63;4.15;;;18.20;96.80;;;;;;5074867;28;20060;-72
2021/08/30 05:53:42;;;;;;;8.73;3.95;;;18.30;96.60;;;;;;5074490;28;20052;-71
2021/08/30 05:56:08;;;;;;;5.35;4.22;;;18.40;96.50;;;;;;5074353;28;20040;-74
2021/08/30 05:58:35;;;;;;;5.82;4.03;;;18.50;96.20;;;;;;5074283;28;20021;-72
2021/08/30 06:01:05;;;;;;;8.07;4.25;;;18.50;96.00;;;;;;5074081;28;20035;-72
2021/08/30 06:03:32;;;;;;;7.20;4.40;;;18.60;95.60;;;;;;5073304;28;20020;-72
2021/08/30 06:05:58;;;;;;;8.30;4.20;;;18.80;95.40;;;;;;5073901;28;20055;-73
2021/08/30 06:08:24;;;;;;;6.35;4.35;;;18.80;95.20;;;;;;5073933;28;20060;-73
2021/08/30 06:10:50;;;;;;;9.18;4.15;;;18.90;94.90;;;;;;5074410;28;20119;-73
2021/08/30 06:13:16;;;;;;;11.45;4.15;;;19.00;94.80;;;;;;5074039;28;20439;-72
2021/08/30 06:15:42;;;;;;;7.43;4.43;;;19.10;94.60;;;;;;5074340;28;20029;-73
2021/08/30 06:18:08;;;;;;;5.45;4.30;;;19.10;94.20;;;;;;5073682;28;20452;-73
2021/08/30 06:20:34;;;;;;;13.73;4.97;;;19.10;94.00;;;;;;5074124;28;20033;-73
2021/08/30 06:22:59;;;;;;;6.30;4.40;;;19.10;94.10;;;;;;5073658;28;20017;-73
2021/08/30 06:25:25;;;;;;;8.05;4.50;;;19.10;94.10;;;;;;5073736;28;20028;-72
2021/08/30 06:27:51;;;;;;;6.85;4.43;;;19.10;94.00;;;;;;5073836;28;20029;-72
2021/08/30 06:30:17;;;;;;;5.55;4.28;;;19.20;94.00;;;;;;5073719;28;20040;-73
2021/08/30 06:32:44;;;;;;;5.68;4.32;;;19.20;93.90;;;;;;5073920;28;20016;-73
2021/08/30 06:35:10;;;;;;;7.00;3.92;;;19.20;93.90;;;;;;5073417;28;20028;-73
2021/08/30 06:37:37;;;;;;;5.85;4.20;;;19.20;94.00;;;;;;5073647;28;20028;-74
2021/08/30 06:40:04;;;;;;;7.75;4.30;;;19.20;94.00;;;;;;5073521;28;20031;-74
2021/08/30 06:42:29;;;;;;;6.57;3.40;;;19.20;94.00;;;;;;5073461;28;20047;-73
2021/08/30 06:44:55;;;;;;;5.28;4.10;;;19.30;95.20;;;;;;5073242;28;20488;-71
2021/08/30 06:47:21;;;;;;;9.73;4.50;;;19.40;93.90;;;;;;5073184;28;20028;-70
2021/08/30 06:49:47;;;;;;;7.60;4.43;;;19.20;93.90;;;;;;5073531;28;20040;-70
2021/08/30 06:52:12;;;;;;;8.25;4.70;;;19.10;94.50;;;;;;5073413;28;20565;-70
2021/08/30 06:54:38;;;;;;;7.90;4.57;;;19.10;94.40;;;;;;5073085;28;20139;-70
2021/08/30 06:57:04;;;;;;;6.10;4.95;;;19.10;94.40;;;;;;5073170;28;20043;-68
2021/08/30 06:59:30;;;;;;;6.50;4.32;;;19.00;94.60;;;;;;5072900;28;20047;-68
2021/08/30 07:01:55;;;;;;;6.95;4.80;;;18.90;95.00;;;;;;5073357;28;20032;-69
2021/08/30 07:04:21;;;;;;;10.75;4.90;;;18.80;95.10;;;;;;5073301;28;20036;-69
2021/08/30 07:06:47;;;;;;;7.88;4.70;;;18.70;95.50;;;;;;5073057;28;20032;-73
2021/08/30 07:09:13;;;;;;;5.80;4.20;;;18.70;96.00;;;;;;5072745;28;20038;-73
2021/08/30 07:11:39;;;;;;;13.07;4.85;;;18.70;95.70;;;;;;5073039;28;20032;-75
2021/08/30 07:14:05;;;;;;;13.35;5.45;;;18.60;95.70;;;;;;5072885;28;20021;-75
2021/08/30 07:16:30;;;;;;;14.13;5.05;;;18.70;96.00;;;;;;5072959;28;20024;-76
2021/08/30 07:18:56;;;;;;;24.73;5.75;;;18.70;96.20;;;;;;5072735;28;20070;-76
2021/08/30 07:21:23;;;;;;;13.88;5.63;;;18.70;96.30;;;;;;5072674;28;20430;-75
2021/08/30 07:23:49;;;;;;;11.02;4.88;;;18.80;97.20;;;;;;5072917;28;20056;-74
2021/08/30 07:26:15;;;;;;;11.60;4.93;;;18.80;97.20;;;;;;5072487;28;20115;-74
2021/08/30 07:28:41;;;;;;;10.27;4.88;;;18.90;97.50;;;;;;5072542;28;20067;-74
2021/08/30 07:31:07;;;;;;;9.75;4.88;;;18.80;97.00;;;;;;5072457;28;20120;-74
2021/08/30 07:33:33;;;;;;;11.68;4.78;;;18.80;97.60;;;;;;5072652;28;20024;-75
2021/08/30 07:35:59;;;;;;;10.40;5.18;;;18.80;97.80;;;;;;5072238;28;20081;-76
2021/08/30 07:38:25;;;;;;;11.48;5.65;;;18.70;97.80;;;;;;5072106;28;20384;-75
2021/08/30 07:40:51;;;;;;;10.00;5.57;;;18.50;97.60;;;;;;5072291;28;20027;-75
2021/08/30 07:43:16;;;;;;;10.70;5.05;;;18.40;98.90;;;;;;5072038;28;20039;-75
2021/08/30 07:45:42;;;;;;;8.52;5.05;;;18.40;98.90;;;;;;5072252;28;20035;-75
2021/08/30 07:48:08;;;;;;;8.80;4.82;;;18.40;99.20;;;;;;5071945;28;20103;-75
2021/08/30 07:50:34;;;;;;;8.70;5.38;;;18.30;99.40;;;;;;5072108;28;20032;-75
2021/08/30 07:52:59;;;;;;;8.13;5.20;;;18.20;99.50;;;;;;5072380;28;20107;-75
2021/08/30 07:55:25;;;;;;;21.50;5.72;;;18.20;99.90;;;;;;5072067;28;20490;-75
2021/08/30 07:57:51;;;;;;;13.02;5.57;;;18.10;99.90;;;;;;5072081;28;20021;-74
2021/08/30 08:00:17;;;;;;;20.30;6.20;;;18.20;99.90;;;;;;5071898;28;20038;-73
2021/08/30 08:02:42;;;;;;;20.10;5.78;;;18.20;99.90;;;;;;5072181;28;20530;-72
2021/08/30 08:05:09;;;;;;;18.80;5.88;;;18.10;99.90;;;;;;5071903;28;20082;-72
2021/08/30 08:07:34;;;;;;;28.02;6.97;;;18.10;99.90;;;;;;5072218;28;20024;-72
2021/08/30 08:10:00;;;;;;;10.55;5.95;;;18.10;99.90;;;;;;5071552;28;20369;-72
2021/08/30 08:12:26;;;;;;;63.83;7.28;;;18.10;99.90;;;;;;5071910;28;20032;-72
2021/08/30 08:14:51;;;;;;;10.35;5.68;;;18.10;99.90;;;;;;5072019;28;20028;-72
2021/08/30 08:17:17;;;;;;;30.90;6.55;;;18.00;99.90;;;;;;5071896;28;20131;-72
2021/08/30 08:19:44;;;;;;;17.88;5.70;;;17.90;99.90;;;;;;5072114;28;20093;-71
2021/08/30 08:22:10;;;;;;;7.82;5.03;;;17.90;99.90;;;;;;5071821;28;20028;-72
2021/08/30 08:24:35;;;;;;;17.70;5.78;;;18.00;99.90;;;;;;5071774;28;20108;-75
2021/08/30 08:27:01;;;;;;;9.30;5.38;;;18.10;99.90;;;;;;5070944;28;20028;-73
2021/08/30 08:29:27;;;;;;;10.45;4.70;;;18.30;99.90;;;;;;5063681;28;20037;-74
2021/08/30 08:31:53;;;;;;;38.35;5.72;;;18.30;99.90;;;;;;5051661;28;20477;-75
2021/08/30 08:34:19;;;;;;;36.25;5.90;;;18.40;99.90;;;;;;5051827;28;20044;-74
2021/08/30 08:36:45;;;;;;;21.40;5.90;;;18.40;99.90;;;;;;5051980;28;20505;-74
2021/08/30 08:39:11;;;;;;;10.15;4.88;;;18.50;99.90;;;;;;5051648;28;20025;-73
2021/08/30 08:41:38;;;;;;;6.22;4.47;;;18.50;99.90;;;;;;5051682;28;20400;-72
2021/08/30 08:44:07;;;;;;;7.53;4.38;;;18.60;99.90;;;;;;5051453;28;20036;-73
2021/08/30 08:46:36;;;;;;;42.75;6.10;;;18.60;99.90;;;;;;5051589;28;20472;-73
2021/08/30 08:49:02;;;;;;;16.23;5.30;;;18.50;99.90;;;;;;5051104;28;20035;-73
2021/08/30 08:51:28;;;;;;;13.88;4.82;;;18.50;99.90;;;;;;5051498;28;20465;-74
2021/08/30 08:53:53;;;;;;;12.00;5.20;;;18.60;99.90;;;;;;5051272;28;20132;-73
2021/08/30 08:56:28;;;;;;;26.48;5.57;;;18.60;99.90;;;;;;5051800;28;20093;-72
2021/08/30 08:58:53;;;;;;;11.05;4.30;;;18.60;99.90;;;;;;5051407;28;20025;-73
2021/08/30 09:01:25;;;;;;;6.00;4.30;;;18.70;99.90;;;;;;5051000;28;20051;-73
2021/08/30 09:03:53;;;;;;;8.98;4.38;;;18.80;99.90;;;;;;5051576;28;20492;-72
2021/08/30 09:06:39;;;;;;;8.73;4.57;;;18.80;99.90;;;;;;5061084;28;20024;-72
2021/08/30 09:09:17;;;;;;;5.97;4.40;;;18.80;99.90;;;;;;5059010;28;20021;-73
2021/08/30 09:11:45;;;;;;;4.68;3.75;;;18.80;99.90;;;;;;5059426;28;20025;-74
2021/08/30 09:14:17;;;;;;;10.20;3.90;;;18.80;99.90;;;;;;5056528;28;20096;-75
2021/08/30 09:16:44;;;;;;;4.97;2.85;;;18.80;99.90;;;;;;5071308;28;20432;-74
2021/08/30 09:19:12;;;;;;;10.98;4.00;;;18.80;99.90;;;;;;5071193;28;20068;-74
2021/08/30 09:21:49;;;;;;;6.78;3.45;;;18.80;99.90;;;;;;5071423;28;20032;-75
2021/08/30 09:24:24;;;;;;;4.45;2.83;;;18.90;99.90;;;;;;5071429;28;20631;-76
2021/08/30 09:26:52;;;;;;;27.35;5.25;;;18.90;99.80;;;;;;5071679;28;20021;-75
2021/08/30 09:29:26;;;;;;;11.68;3.53;;;18.90;99.90;;;;;;5071038;28;20029;-76
2021/08/30 09:32:02;;;;;;;5.68;3.28;;;19.00;99.90;;;;;;5071344;28;20421;-75
2021/08/30 09:34:33;;;;;;;7.07;2.38;;;19.00;99.90;;;;;;5071284;28;20106;-75
2021/08/30 09:36:59;;;;;;;4.28;2.45;;;19.00;99.40;;;;;;5071375;28;20063;-74
2021/08/30 09:39:26;;;;;;;2.33;1.95;;;19.00;98.00;;;;;;5073925;28;20025;-75
2021/08/30 09:41:53;;;;;;;12.82;4.22;;;19.00;97.10;;;;;;5074931;28;20025;-75
2021/08/30 09:44:26;;;;;;;6.43;3.25;;;19.10;97.20;;;;;;5074456;28;20025;-75
2021/08/30 09:46:53;;;;;;;3.83;2.70;;;19.10;96.40;;;;;;5074601;28;20039;-74
2021/08/30 09:49:22;;;;;;;4.25;2.40;;;19.10;95.90;;;;;;5074525;28;20099;-75
2021/08/30 09:51:49;;;;;;;10.05;2.95;;;19.10;96.20;;;;;;5074735;28;20063;-74
2021/08/30 09:54:18;;;;;;;6.80;2.50;;;19.20;96.60;;;;;;5074297;28;20071;-75
2021/08/30 09:56:45;;;;;;;4.45;2.38;;;19.20;97.20;;;;;;5074845;28;20032;-74
2021/08/30 09:59:12;;;;;;;4.05;2.17;;;19.20;97.90;;;;;;5074722;28;20111;-76
2021/08/30 10:01:40;;;;;;;5.43;2.33;;;19.20;98.50;;;;;;5074280;28;20017;-71
2021/08/30 10:04:07;;;;;;;2.40;2.03;;;19.30;97.80;;;;;;5074349;28;20032;-70
2021/08/30 10:06:38;;;;;;;6.68;2.42;;;19.30;97.90;;;;;;5074432;28;20408;-72
2021/08/30 10:09:10;;;;;;;4.57;2.00;;;19.30;97.90;;;;;;5071961;28;20106;-71
2021/08/30 10:11:37;;;;;;;2.72;2.00;;;19.30;97.10;;;;;;5064538;28;20361;-74
2021/08/30 10:14:19;;;;;;;6.60;2.60;;;19.30;97.30;;;;;;5056681;28;20461;-74
2021/08/30 10:16:46;;;;;;;2.95;2.05;;;19.40;97.80;;;;;;5054031;28;20025;-73
2021/08/30 10:19:23;;;;;;;17.60;2.42;;;19.40;97.00;;;;;;5053729;28;20131;-73
2021/08/30 10:21:49;;;;;;;2.22;2.03;;;19.40;96.90;;;;;;5054050;28;20035;-73
2021/08/30 10:24:17;;;;;;;2.15;1.90;;;19.50;96.60;;;;;;5053803;28;20024;-73
2021/08/30 10:26:45;;;;;;;15.48;2.38;;;19.40;96.10;;;;;;5054102;28;20025;-73
2021/08/30 10:29:12;;;;;;;15.80;2.08;;;19.40;95.50;;;;;;5054688;28;20035;-73
2021/08/30 10:31:50;;;;;;;3.22;2.10;;;19.50;95.60;;;;;;5058668;28;20033;-73
2021/08/30 10:34:32;;;;;;;9.52;2.42;;;19.50;95.80;;;;;;5053501;28;20035;-72
2021/08/30 10:36:59;;;;;;;27.85;3.67;;;19.50;96.30;;;;;;5053699;28;20043;-72
2021/08/30 10:39:40;;;;;;;4.00;1.90;;;19.60;95.50;;;;;;5053470;28;20025;-72
2021/08/30 10:42:09;;;;;;;6.45;1.98;;;19.60;95.10;;;;;;5053636;28;20416;-72
2021/08/30 10:44:55;;;;;;;14.13;2.30;;;19.60;96.30;;;;;;5053545;28;20082;-72
2021/08/30 10:47:25;;;;;;;5.65;2.03;;;19.70;95.10;;;;;;5053449;28;20025;-72
2021/08/30 10:49:53;;;;;;;6.57;2.58;;;19.60;94.90;;;;;;5052673;28;20546;-71
2021/08/30 10:52:20;;;;;;;2.25;1.83;;;19.70;94.70;;;;;;5060993;28;20063;-73
2021/08/30 10:54:54;;;;;;;6.63;2.33;;;19.70;94.80;;;;;;5061939;28;20052;-73
2021/08/30 10:57:33;;;;;;;25.73;3.08;;;19.70;94.50;;;;;;5061590;28;20032;-76
2021/08/30 10:59:59;;;;;;;33.33;3.80;;;19.80;94.40;;;;;;5061451;28;20025;-75
2021/08/30 11:02:46;;;;;;;6.85;1.88;;;19.80;93.40;;;;;;5063493;28;20767;-75
2021/08/30 11:05:11;;;;;;;7.90;2.03;;;19.90;93.60;;;;;;5064810;28;20059;-77
2021/08/30 11:07:40;;;;;;;46.35;3.75;;;19.90;93.50;;;;;;5061744;28;20060;-76
2021/08/30 11:10:07;;;;;;;12.10;2.33;;;20.00;93.10;;;;;;5061944;28;20036;-75
2021/08/30 11:12:33;;;;;;;159.20;9.65;;;19.90;93.10;;;;;;5063387;28;20044;-76
2021/08/30 11:14:59;;;;;;;5.95;2.20;;;20.00;93.00;;;;;;5062104;28;20025;-76
2021/08/30 11:17:30;;;;;;;2.60;1.45;;;20.00;93.00;;;;;;5061156;28;20025;-76
2021/08/30 11:19:58;;;;;;;5.85;2.28;;;20.00;92.80;;;;;;5062308;28;20036;-77
2021/08/30 11:22:24;;;;;;;6.43;1.80;;;19.90;92.90;;;;;;5063049;28;20488;-75
2021/08/30 11:24:50;;;;;;;2.30;1.75;;;20.00;93.10;;;;;;5061621;28;20032;-76
2021/08/30 11:27:20;;;;;;;1.95;1.50;;;19.90;91.80;;;;;;5062017;28;20020;-76
2021/08/30 11:29:47;;;;;;;;;;;19.90;91.70;;;;;;5063574;28;20041;-77
2021/08/30 11:32:14;;;;;;;1.90;1.40;;;19.90;91.30;;;;;;5061446;28;19955;-76
2021/08/30 11:34:40;;;;;;;1.98;1.50;;;19.90;91.50;;;;;;5064742;28;20123;-76
2021/08/30 11:37:12;;;;;;;1.50;1.23;;;19.90;91.40;;;;;;5066722;28;20028;-76
2021/08/30 11:39:40;;;;;;;4.28;1.90;;;19.90;91.50;;;;;;5072415;28;20024;-75
2021/08/30 11:42:10;;;;;;;28.27;1.83;;;19.90;92.00;;;;;;5052533;28;20583;-76
2021/08/30 11:44:37;;;;;;;41.45;3.20;;;20.00;92.20;;;;;;5057002;28;20025;-76
2021/08/30 11:47:06;;;;;;;7.00;1.73;;;20.00;90.60;;;;;;5069269;28;20029;-77
2021/08/30 11:49:38;;;;;;;5.00;1.50;;;20.00;90.30;;;;;;5072048;28;20032;-76
2021/08/30 11:52:05;;;;;;;26.88;2.67;;;20.00;91.10;;;;;;5072430;28;20024;-76
2021/08/30 11:54:37;;;;;;;5.65;1.58;;;20.00;91.60;;;;;;5071935;28;20119;-73
2021/08/30 11:57:08;;;;;;;1.70;1.38;;;20.10;91.30;;;;;;5072629;28;20040;-75
2021/08/30 11:59:36;;;;;;;2.47;1.80;;;20.10;90.90;;;;;;5072264;28;20450;-75
2021/08/30 12:02:04;;;;;;;3.67;1.38;;;20.10;90.80;;;;;;5071358;28;20030;-76
2021/08/30 12:04:32;;;;;;;35.33;2.47;;;20.00;90.20;;;;;;5071795;28;20479;-76
2021/08/30 12:07:01;;;;;;;2.35;1.40;;;20.00;90.20;;;;;;5057464;28;20120;-76
2021/08/30 12:09:56;;;;;;;31.23;2.40;;;20.00;90.10;;;;;;5051673;28;20505;-77
2021/08/30 12:12:29;;;;;;;15.45;2.13;;;20.10;90.50;;;;;;5050616;28;20033;-77
2021/08/30 12:15:08;;;;;;;63.85;3.72;;;20.20;90.20;;;;;;5051945;28;20384;-76
2021/08/30 12:17:40;;;;;;;4.23;1.53;;;20.20;90.40;;;;;;5052071;28;20032;-78
2021/08/30 12:20:10;;;;;;;3.03;1.13;;;20.20;88.50;;;;;;5051743;28;20713;-74
2021/08/30 12:22:38;;;;;;;31.77;2.42;;;20.10;87.50;;;;;;5051798;28;20029;-81
2021/08/30 12:25:19;;;;;;;9.02;1.80;;;20.10;88.70;;;;;;5054469;28;20037;-81
2021/08/30 12:27:46;;;;;;;5.00;1.35;;;20.50;93.30;;;;;;5056856;28;20498;-75
2021/08/30 12:30:21;;;;;;;2.65;1.30;;;20.70;90.60;;;;;;5051766;28;20083;-75
2021/08/30 12:32:47;;;;;;;1.60;1.23;;;20.60;88.10;;;;;;5051794;28;20688;-75
2021/08/30 12:35:25;;;;;;;113.72;8.52;;;20.50;87.30;;;;;;5051535;28;20017;-75
2021/08/30 12:37:52;;;;;;;10.98;2.35;;;20.40;87.00;;;;;;5051939;28;20057;-75
2021/08/30 12:40:18;;;;;;;4.72;1.63;;;20.40;87.20;;;;;;5051525;28;20029;-75
2021/08/30 12:42:44;;;;;;;5.55;1.67;;;20.30;86.20;;;;;;5051765;28;20484;-75
2021/08/30 12:45:11;;;;;;;3.70;1.23;;;20.30;85.90;;;;;;5051771;28;20029;-75
2021/08/30 12:47:37;;;;;;;6.43;1.67;;;20.30;86.60;;;;;;5051637;28;20017;-75
2021/08/30 12:50:03;;;;;;;8.50;1.95;;;20.30;86.70;;;;;;5051456;28;20484;-76
2021/08/30 12:52:29;;;;;;;3.67;1.38;;;20.40;89.10;;;;;;5051752;28;20112;-78
2021/08/30 12:54:54;;;;;;;4.80;1.60;;;20.50;87.00;;;;;;5051410;28;20132;-74
2021/08/30 12:57:20;;;;;;;4.68;1.38;;;20.50;86.00;;;;;;5053746;28;20025;-75
2021/08/30 12:59:46;;;;;;;4.60;1.38;;;20.40;83.80;;;;;;5070631;28;20059;-73
2021/08/30 13:02:13;;;;;;;1.42;1.20;;;20.40;83.70;;;;;;5071385;28;20090;-73
2021/08/30 13:04:38;;;;;;;3.60;1.10;;;20.40;83.90;;;;;;5065230;28;20017;-73
2021/08/30 13:07:04;;;;;;;52.80;4.93;;;20.30;84.00;;;;;;5071829;28;20036;-73
2021/08/30 13:09:30;;;;;;;50.47;3.83;;;20.30;83.40;;;;;;5070947;28;20078;-73
2021/08/30 13:11:56;;;;;;;3.70;1.58;;;20.30;85.00;;;;;;5068928;28;20082;-74
2021/08/30 13:14:22;;;;;;;3.50;1.23;;;20.30;84.60;;;;;;5066182;28;20036;-74
2021/08/30 13:16:48;;;;;;;2.30;1.40;;;20.30;84.30;;;;;;5064263;28;20037;-73
2021/08/30 13:19:13;;;;;;;9.98;1.58;;;20.30;84.50;;;;;;5054950;28;20029;-74
2021/08/30 13:21:39;;;;;;;3.15;1.38;;;20.30;84.90;;;;;;5055126;28;20033;-76